createdAt,value
2019-03-01T00:01:21.749Z,100689.36
2019-03-01T00:04:40.644Z,100682.95
2019-03-01T00:08:11.729Z,100677.48
2019-03-01T00:11:33.189Z,100675.48
2019-03-01T00:14:55.048Z,100677.59
2019-03-01T00:18:31.116Z,100672.28
2019-03-01T00:21:31.980Z,100667.95
2019-03-01T00:25:12.088Z,100665.62
2019-03-01T00:28:21.058Z,100656.95
2019-03-01T00:31:47.297Z,100659.62
2019-03-01T00:35:02.715Z,100656.13
2019-03-01T00:38:26.763Z,100655.28
2019-03-01T00:41:18.162Z,100654.63
2019-03-01T00:44:41.129Z,100642.70
2019-03-01T00:47:12.606Z,100645.20
2019-03-01T00:49:44.218Z,100644.18
2019-03-01T00:52:15.506Z,100638.38
2019-03-01T00:54:46.754Z,100635.05
2019-03-01T00:57:18.071Z,100635.38
2019-03-01T00:59:49.280Z,100630.59
2019-03-01T01:02:20.530Z,100628.70
2019-03-01T01:04:51.753Z,100627.90
2019-03-01T01:07:22.923Z,100627.37
2019-03-01T01:09:54.189Z,100621.23
2019-03-01T01:12:25.435Z,100625.53
2019-03-01T01:14:56.742Z,100624.39
2019-03-01T01:17:27.952Z,100620.41
2019-03-01T01:19:59.309Z,100619.91
2019-03-01T01:22:31.928Z,100620.56
2019-03-01T01:25:03.181Z,100611.08
2019-03-01T01:27:34.443Z,100607.73
2019-03-01T01:30:06.661Z,100608.09
2019-03-01T01:32:37.958Z,100599.46
2019-03-01T01:35:09.242Z,100602.77
2019-03-01T01:37:40.495Z,100592.63
2019-03-01T01:40:12.417Z,100593.13
2019-03-01T01:42:46.326Z,100587.31
2019-03-01T01:45:23.092Z,100593.80
2019-03-01T01:47:54.627Z,100589.48
2019-03-01T01:50:25.982Z,100585.48
2019-03-01T01:52:57.217Z,100585.80
2019-03-01T01:55:28.468Z,100585.23
2019-03-01T01:57:59.740Z,100579.11
2019-03-01T02:00:30.880Z,100581.08
2019-03-01T02:03:02.275Z,100583.23
2019-03-01T02:05:33.637Z,100581.90
2019-03-01T02:08:04.960Z,100581.19
2019-03-01T02:10:36.389Z,100577.88
2019-03-01T02:13:07.642Z,100581.73
2019-03-01T02:15:38.881Z,100580.73
2019-03-01T02:18:14.486Z,100576.70
2019-03-01T02:20:45.771Z,100573.58
2019-03-01T02:23:17.046Z,100578.19
2019-03-01T02:25:48.210Z,100571.71
2019-03-01T02:28:19.481Z,100570.55
2019-03-01T02:30:51.116Z,100565.08
2019-03-01T02:33:22.347Z,100565.86
2019-03-01T02:35:53.541Z,100557.38
2019-03-01T02:38:24.785Z,100561.09
2019-03-01T02:40:56.075Z,100559.75
2019-03-01T02:43:27.338Z,100562.53
2019-03-01T02:45:58.595Z,100552.58
2019-03-01T02:48:29.911Z,100551.89
2019-03-01T02:51:01.181Z,100549.10
2019-03-01T02:53:32.469Z,100551.63
2019-03-01T02:56:03.684Z,100545.62
2019-03-01T02:58:34.938Z,100545.11
2019-03-01T03:01:06.211Z,100550.28
2019-03-01T03:03:37.504Z,100534.69
2019-03-01T03:06:30.572Z,100540.46
2019-03-01T03:09:01.859Z,100538.83
2019-03-01T03:11:33.125Z,100536.03
2019-03-01T03:14:04.518Z,100534.81
2019-03-01T03:16:35.731Z,100531.81
2019-03-01T03:19:07.008Z,100524.03
2019-03-01T03:21:38.264Z,100527.69
2019-03-01T03:24:09.550Z,100531.13
2019-03-01T03:26:40.847Z,100528.32
2019-03-01T03:29:12.066Z,100530.45
2019-03-01T03:31:43.398Z,100528.14
2019-03-01T03:34:14.692Z,100529.80
2019-03-01T03:37:05.026Z,100526.54
2019-03-01T03:39:36.282Z,100531.31
2019-03-01T03:42:07.837Z,100531.95
2019-03-01T03:44:39.174Z,100535.27
2019-03-01T03:47:10.506Z,100533.77
2019-03-01T03:49:41.708Z,100531.77
2019-03-01T03:52:13.025Z,100526.69
2019-03-01T03:54:44.314Z,100527.52
2019-03-01T03:57:15.564Z,100530.66
2019-03-01T03:59:46.845Z,100531.98
2019-03-01T04:02:18.236Z,100526.98
2019-03-01T04:04:49.482Z,100528.48
2019-03-01T04:07:20.892Z,100524.34
2019-03-01T04:09:52.360Z,100525.50
2019-03-01T04:12:23.661Z,100526.17
2019-03-01T04:14:55.089Z,100522.88
2019-03-01T04:17:26.293Z,100530.17
2019-03-01T04:19:57.625Z,100526.55
2019-03-01T04:22:29.110Z,100521.52
2019-03-01T04:25:00.385Z,100523.88
2019-03-01T04:27:31.695Z,100525.34
2019-03-01T04:30:03.035Z,100520.98
2019-03-01T04:32:34.342Z,100523.34
2019-03-01T04:35:05.811Z,100521.84
2019-03-01T04:37:37.105Z,100523.52
2019-03-01T04:40:27.335Z,100526.00
2019-03-01T04:42:58.629Z,100518.23
2019-03-01T04:45:29.990Z,100516.20
2019-03-01T04:48:01.273Z,100520.88
2019-03-01T04:50:32.608Z,100525.19
2019-03-01T04:53:03.787Z,100525.97
2019-03-01T04:55:35.099Z,100524.66
2019-03-01T04:58:06.377Z,100527.15
2019-03-01T05:00:37.648Z,100524.02
2019-03-01T05:03:08.864Z,100528.04
2019-03-01T05:05:40.087Z,100531.16
2019-03-01T05:08:11.389Z,100534.66
2019-03-01T05:10:42.619Z,100529.13
2019-03-01T05:13:13.873Z,100531.46
2019-03-01T05:15:45.078Z,100535.09
2019-03-01T05:18:16.315Z,100538.61
2019-03-01T05:20:47.594Z,100538.45
2019-03-01T05:23:18.814Z,100537.77
2019-03-01T05:25:50.025Z,100535.93
2019-03-01T05:28:21.253Z,100542.94
2019-03-01T05:30:52.579Z,100541.46
2019-03-01T05:33:23.817Z,100537.30
2019-03-01T05:35:55.086Z,100539.45
2019-03-01T05:38:26.236Z,100535.47
2019-03-01T05:40:57.524Z,100536.62
2019-03-01T05:43:28.750Z,100533.61
2019-03-01T05:46:00.066Z,100526.81
2019-03-01T05:48:50.290Z,100527.96
2019-03-01T05:51:21.595Z,100528.94
2019-03-01T05:53:53.018Z,100533.70
2019-03-01T05:56:24.326Z,100537.86
2019-03-01T05:59:13.085Z,100539.50
2019-03-01T06:02:45.486Z,100540.00
2019-03-01T06:05:22.196Z,100548.77
2019-03-01T06:08:43.541Z,100554.12
2019-03-01T06:11:45.220Z,100559.80
2019-03-01T06:15:05.060Z,100565.13
2019-03-01T06:18:31.839Z,100571.27
2019-03-01T06:21:55.172Z,100580.02
2019-03-01T06:25:22.990Z,100579.47
2019-03-01T06:28:39.851Z,100581.88
2019-03-01T06:32:22.127Z,100590.69
2019-03-01T06:36:00.610Z,100590.30
2019-03-01T06:39:55.018Z,100587.83
2019-03-01T06:42:55.540Z,100586.32
2019-03-01T06:46:21.856Z,100590.66
2019-03-01T06:49:14.621Z,100596.03
2019-03-01T06:51:45.927Z,100592.84
2019-03-01T06:54:17.164Z,100595.52
2019-03-01T06:56:48.409Z,100597.03
2019-03-01T06:59:19.634Z,100590.89
2019-03-01T07:01:50.951Z,100596.03
2019-03-01T07:04:22.606Z,100599.70
2019-03-01T07:06:54.016Z,100601.19
2019-03-01T07:09:25.320Z,100599.85
2019-03-01T07:11:56.750Z,100607.83
2019-03-01T07:14:28.037Z,100605.86
2019-03-01T07:16:59.254Z,100613.21
2019-03-01T07:19:30.526Z,100616.53
2019-03-01T07:22:01.859Z,100621.03
2019-03-01T07:24:33.122Z,100622.46
2019-03-01T07:27:04.466Z,100623.69
2019-03-01T07:29:35.775Z,100627.16
2019-03-01T07:32:07.062Z,100630.33
2019-03-01T07:34:38.262Z,100635.67
2019-03-01T07:37:09.556Z,100633.93
2019-03-01T07:39:40.864Z,100631.66
2019-03-01T07:42:12.262Z,100636.00
2019-03-01T07:44:43.399Z,100638.75
2019-03-01T07:47:14.735Z,100647.39
2019-03-01T07:49:46.050Z,100660.80
2019-03-01T07:52:17.373Z,100661.13
2019-03-01T07:54:49.498Z,100666.08
2019-03-01T07:57:21.586Z,100670.25
2019-03-01T07:59:52.802Z,100678.30
2019-03-01T08:02:45.352Z,100684.46
2019-03-01T08:05:16.528Z,100691.09
2019-03-01T08:07:55.747Z,100698.73
2019-03-01T08:10:22.826Z,100703.12
2019-03-01T08:12:54.011Z,100708.06
2019-03-01T08:15:25.261Z,100707.47
2019-03-01T08:17:56.588Z,100715.80
2019-03-01T08:20:30.336Z,100707.76
2019-03-01T08:23:01.713Z,100726.25
2019-03-01T08:25:33.239Z,100732.17
2019-03-01T08:28:04.578Z,100732.84
2019-03-01T08:30:35.968Z,100737.44
2019-03-01T08:33:07.943Z,100735.35
2019-03-01T08:35:39.312Z,100734.83
2019-03-01T08:38:12.769Z,100739.23
2019-03-01T08:40:46.690Z,100745.48
2019-03-01T08:43:17.185Z,100748.81
2019-03-01T08:45:48.926Z,100746.91
2019-03-01T08:48:30.572Z,100758.48
2019-03-01T08:51:00.667Z,100760.08
2019-03-01T08:53:31.872Z,100757.03
2019-03-01T08:56:03.172Z,100757.75
2019-03-01T08:58:37.742Z,100767.64
2019-03-01T09:01:09.796Z,100773.09
2019-03-01T09:03:48.442Z,100775.02
2019-03-01T09:06:19.631Z,100775.83
2019-03-01T09:08:51.176Z,100777.30
2019-03-01T09:11:22.580Z,100778.00
2019-03-01T09:13:54.091Z,100784.83
2019-03-01T09:16:25.423Z,100782.81
2019-03-01T09:18:56.798Z,100797.39
2019-03-01T09:21:28.350Z,100801.03
2019-03-01T09:23:59.885Z,100793.89
2019-03-01T09:26:31.131Z,100795.95
2019-03-01T09:29:02.504Z,100793.50
2019-03-01T09:31:33.876Z,100807.94
2019-03-01T09:34:06.259Z,100799.51
2019-03-01T09:36:44.742Z,100803.69
2019-03-01T09:39:18.038Z,100812.91
2019-03-01T09:41:51.562Z,100815.88
2019-03-01T09:44:22.766Z,100816.27
2019-03-01T09:46:54.129Z,100828.14
2019-03-01T09:49:27.165Z,100831.19
2019-03-01T09:51:58.455Z,100826.67
2019-03-01T09:54:29.766Z,100828.68
2019-03-01T09:57:01.083Z,100824.90
2019-03-01T09:59:32.367Z,100836.09
2019-03-01T10:02:03.666Z,100838.02
2019-03-01T10:04:35.103Z,100839.59
2019-03-01T10:07:11.199Z,100841.01
2019-03-01T10:09:45.740Z,100852.01
2019-03-01T10:12:17.055Z,100849.81
2019-03-01T10:14:48.287Z,100856.84
2019-03-01T10:17:19.570Z,100857.03
2019-03-01T10:19:50.772Z,100861.16
2019-03-01T10:22:22.066Z,100857.97
2019-03-01T10:24:53.312Z,100866.88
2019-03-01T10:27:24.571Z,100872.38
2019-03-01T10:29:55.870Z,100868.38
2019-03-01T10:32:28.284Z,100877.72
2019-03-01T10:34:59.550Z,100877.13
2019-03-01T10:37:30.784Z,100888.67
2019-03-01T10:40:02.088Z,100883.30
2019-03-01T10:42:33.366Z,100885.82
2019-03-01T10:45:04.774Z,100891.13
2019-03-01T10:47:35.962Z,100897.30
2019-03-01T10:50:07.967Z,100896.84
2019-03-01T10:52:39.338Z,100905.91
2019-03-01T10:55:13.549Z,100904.27
2019-03-01T10:57:44.841Z,100909.16
2019-03-01T11:00:20.313Z,100911.42
2019-03-01T11:02:51.747Z,100917.71
2019-03-01T11:05:23.239Z,100915.53
2019-03-01T11:07:55.008Z,100916.41
2019-03-01T11:10:33.032Z,100927.08
2019-03-01T11:13:07.909Z,100918.86
2019-03-01T11:15:49.589Z,100926.48
2019-03-01T11:18:20.954Z,100922.91
2019-03-01T11:21:11.247Z,100926.82
2019-03-01T11:23:42.592Z,100930.66
2019-03-01T11:26:13.826Z,100932.03
2019-03-01T11:28:45.121Z,100932.95
2019-03-01T11:31:16.372Z,100923.33
2019-03-01T11:33:47.629Z,100925.97
2019-03-01T11:36:19.128Z,100937.98
2019-03-01T11:38:50.757Z,100938.44
2019-03-01T11:41:24.253Z,100943.59
2019-03-01T11:43:55.585Z,100946.04
2019-03-01T11:46:27.178Z,100953.87
2019-03-01T11:48:58.319Z,100954.86
2019-03-01T11:51:30.068Z,100953.94
2019-03-01T11:54:01.409Z,100968.17
2019-03-01T11:56:32.952Z,100971.41
2019-03-01T11:59:04.212Z,100969.25
2019-03-01T12:01:35.561Z,100971.19
2019-03-01T12:04:06.866Z,100979.48
2019-03-01T12:06:38.200Z,100986.24
2019-03-01T12:09:09.938Z,100981.72
2019-03-01T12:11:41.516Z,100976.47
2019-03-01T12:14:12.796Z,101002.83
2019-03-01T12:16:44.189Z,101013.50
2019-03-01T12:19:15.573Z,101012.86
2019-03-01T12:21:47.105Z,101005.47
2019-03-01T12:24:18.819Z,101023.02
2019-03-01T12:26:50.539Z,101018.02
2019-03-01T12:29:21.796Z,101023.78
2019-03-01T12:31:53.135Z,101025.83
2019-03-01T12:34:24.508Z,101030.48
2019-03-01T12:36:55.821Z,101028.19
2019-03-01T12:39:27.073Z,101027.72
2019-03-01T12:41:58.429Z,101038.56
2019-03-01T12:44:29.672Z,101034.50
2019-03-01T12:47:01.031Z,101035.82
2019-03-01T12:49:32.333Z,101051.48
2019-03-01T12:52:03.646Z,101046.20
2019-03-01T12:54:34.943Z,101044.18
2019-03-01T12:57:06.304Z,101044.31
2019-03-01T12:59:40.839Z,101041.66
2019-03-01T13:02:12.066Z,101035.13
2019-03-01T13:04:43.465Z,101047.13
2019-03-01T13:07:14.837Z,101049.11
2019-03-01T13:09:46.106Z,101049.33
2019-03-01T13:12:17.424Z,101046.03
2019-03-01T13:14:48.719Z,101039.06
2019-03-01T13:17:19.911Z,101044.92
2019-03-01T13:19:57.484Z,101047.13
2019-03-01T13:22:27.938Z,101054.88
2019-03-01T13:24:59.812Z,101046.00
2019-03-01T13:27:31.127Z,101049.39
2019-03-01T13:30:02.547Z,101055.38
2019-03-01T13:32:33.835Z,101050.84
2019-03-01T13:35:05.551Z,101057.55
2019-03-01T13:37:36.758Z,101055.03
2019-03-01T13:40:09.591Z,101055.67
2019-03-01T13:42:40.904Z,101065.02
2019-03-01T13:45:17.726Z,101068.95
2019-03-01T13:47:49.031Z,101067.55
2019-03-01T13:50:20.609Z,101059.17
2019-03-01T13:52:51.909Z,101064.26
2019-03-01T13:55:23.899Z,101059.39
2019-03-01T13:57:55.349Z,101063.23
2019-03-01T14:00:26.573Z,101058.25
2019-03-01T14:02:57.879Z,101069.06
2019-03-01T14:05:29.135Z,101065.42
2019-03-01T14:08:08.714Z,101059.83
2019-03-01T14:10:33.420Z,101073.59
2019-03-01T14:13:04.845Z,101067.35
2019-03-01T14:15:38.401Z,101065.34
2019-03-01T14:18:09.208Z,101060.84
2019-03-01T14:20:40.570Z,101055.60
2019-03-01T14:23:11.873Z,101061.03
2019-03-01T14:25:43.152Z,101052.92
2019-03-01T14:28:14.488Z,101062.89
2019-03-01T14:30:59.534Z,101067.98
2019-03-01T14:33:36.083Z,101067.08
2019-03-01T14:36:09.107Z,101071.98
2019-03-01T14:38:59.620Z,101077.46
2019-03-01T14:41:34.258Z,101096.74
2019-03-01T14:44:04.150Z,101094.05
2019-03-01T14:46:36.365Z,101097.25
2019-03-01T14:49:10.809Z,101101.86
2019-03-01T14:51:46.527Z,101103.31
2019-03-01T14:54:15.125Z,101099.03
2019-03-01T14:56:58.588Z,101109.33
2019-03-01T14:59:38.348Z,101111.03
2019-03-01T15:02:46.561Z,101114.20
2019-03-01T15:05:19.861Z,101113.38
2019-03-01T15:07:52.324Z,101114.63
2019-03-01T15:10:23.742Z,101111.21
2019-03-01T15:12:57.940Z,101113.77
2019-03-01T15:15:30.001Z,101113.95
2019-03-01T15:18:01.483Z,101112.84
2019-03-01T15:20:32.842Z,101134.14
2019-03-01T15:23:04.141Z,101123.27
2019-03-01T15:25:35.523Z,101138.59
2019-03-01T15:28:09.826Z,101135.28
2019-03-01T15:30:42.542Z,101131.28
2019-03-01T15:33:14.482Z,101138.94
2019-03-01T15:35:46.119Z,101132.23
2019-03-01T15:38:17.345Z,101135.47
2019-03-01T15:40:49.319Z,101134.63
2019-03-01T15:43:20.562Z,101135.31
2019-03-01T15:45:52.024Z,101133.17
2019-03-01T15:48:23.604Z,101140.98
2019-03-01T15:50:55.419Z,101149.37
2019-03-01T15:53:26.849Z,101153.81
2019-03-01T15:55:58.517Z,101162.20
2019-03-01T15:58:33.030Z,101160.09
2019-03-01T16:01:05.908Z,101163.39
2019-03-01T16:03:39.571Z,101164.74
2019-03-01T16:06:17.502Z,101170.06
2019-03-01T16:08:47.817Z,101168.89
2019-03-01T16:11:17.731Z,101174.20
2019-03-01T16:13:49.446Z,101180.72
2019-03-01T16:16:21.064Z,101194.47
2019-03-01T16:18:52.943Z,101197.52
2019-03-01T16:21:24.653Z,101196.11
2019-03-01T16:23:56.264Z,101203.98
2019-03-01T16:26:30.031Z,101209.45
2019-03-01T16:29:03.882Z,101211.06
2019-03-01T16:31:34.431Z,101215.55
2019-03-01T16:34:05.869Z,101213.88
2019-03-01T16:36:43.720Z,101222.83
2019-03-01T16:39:16.598Z,101226.79
2019-03-01T16:41:51.942Z,101224.14
2019-03-01T16:44:25.656Z,101224.73
2019-03-01T16:46:57.156Z,101232.70
2019-03-01T16:49:28.626Z,101230.29
2019-03-01T16:51:59.993Z,101234.99
2019-03-01T16:54:31.445Z,101237.25
2019-03-01T16:57:05.964Z,101227.02
2019-03-01T16:59:39.564Z,101231.53
2019-03-01T17:02:15.766Z,101231.58
2019-03-01T17:04:50.066Z,101231.06
2019-03-01T17:07:25.132Z,101232.16
2019-03-01T17:09:55.555Z,101236.59
2019-03-01T17:12:27.151Z,101240.71
2019-03-01T17:14:58.534Z,101248.26
2019-03-01T17:17:33.041Z,101246.08
2019-03-01T17:20:05.775Z,101246.23
2019-03-01T17:22:39.945Z,101249.34
2019-03-01T17:25:11.467Z,101253.97
2019-03-01T17:27:44.150Z,101246.12
2019-03-01T17:30:20.035Z,101255.10
2019-03-01T17:32:51.620Z,101253.34
2019-03-01T17:35:25.946Z,101253.34
2019-03-01T17:37:57.296Z,101247.24
2019-03-01T17:40:29.272Z,101250.82
2019-03-01T17:43:02.062Z,101242.73
2019-03-01T17:45:42.512Z,101253.16
2019-03-01T17:48:22.175Z,101250.23
2019-03-01T17:50:52.377Z,101253.08
2019-03-01T17:53:29.089Z,101262.72
2019-03-01T17:56:00.509Z,101264.52
2019-03-01T17:58:56.541Z,101258.64
2019-03-01T18:01:29.390Z,101263.80
2019-03-01T18:04:07.011Z,101269.30
2019-03-01T18:06:48.709Z,101277.50
2019-03-01T18:09:23.667Z,101282.66
2019-03-01T18:11:54.928Z,101285.09
2019-03-01T18:14:26.467Z,101288.06
2019-03-01T18:17:00.471Z,101295.89
2019-03-01T18:19:31.447Z,101296.85
2019-03-01T18:22:02.794Z,101304.06
2019-03-01T18:24:34.168Z,101301.55
2019-03-01T18:27:05.630Z,101298.66
2019-03-01T18:29:39.028Z,101293.03
2019-03-01T18:32:10.883Z,101288.70
2019-03-01T18:34:43.299Z,101296.84
2019-03-01T18:37:19.420Z,101287.13
2019-03-01T18:39:51.167Z,101288.19
2019-03-01T18:42:25.881Z,101297.70
2019-03-01T18:44:57.351Z,101296.73
2019-03-01T18:47:31.528Z,101301.67
2019-03-01T18:50:03.130Z,101292.77
2019-03-01T18:52:35.261Z,101291.69
2019-03-01T18:55:13.723Z,101292.27
2019-03-01T18:58:01.275Z,101300.67
2019-03-01T19:00:41.440Z,101307.52
2019-03-01T19:03:13.273Z,101304.05
2019-03-01T19:05:46.614Z,101308.02
2019-03-01T19:08:17.981Z,101304.41
2019-03-01T19:10:54.417Z,101303.58
2019-03-01T19:13:25.702Z,101313.31
2019-03-01T19:15:57.241Z,101314.75
2019-03-01T19:18:28.623Z,101320.03
2019-03-01T19:21:04.711Z,101320.63
2019-03-01T19:23:33.579Z,101311.39
2019-03-01T19:26:26.148Z,101315.45
2019-03-01T19:29:07.905Z,101312.73
2019-03-01T19:31:37.710Z,101319.94
2019-03-01T19:34:13.115Z,101317.29
2019-03-01T19:36:43.874Z,101321.86
2019-03-01T19:39:23.630Z,101307.05
2019-03-01T19:41:59.249Z,101303.34
2019-03-01T19:44:30.086Z,101306.34
2019-03-01T19:47:02.180Z,101310.80
2019-03-01T19:49:41.179Z,101302.51
2019-03-01T19:52:13.114Z,101299.13
2019-03-01T19:54:49.380Z,101301.43
2019-03-01T19:57:33.598Z,101305.88
2019-03-01T20:00:21.875Z,101308.65
2019-03-01T20:02:58.061Z,101309.95
2019-03-01T20:05:33.026Z,101310.20
2019-03-01T20:08:04.882Z,101311.41
2019-03-01T20:11:30.423Z,101317.29
2019-03-01T20:15:09.727Z,101316.44
2019-03-01T20:17:19.094Z,101318.49
2019-03-01T20:19:56.915Z,101309.37
2019-03-01T20:22:27.191Z,101310.20
2019-03-01T20:24:58.734Z,101310.44
2019-03-01T20:27:30.248Z,101297.34
2019-03-01T20:30:01.639Z,101304.06
2019-03-01T20:32:33.244Z,101297.70
2019-03-01T20:35:05.859Z,101300.34
2019-03-01T20:37:40.171Z,101303.48
2019-03-01T20:40:14.161Z,101303.25
2019-03-01T20:42:45.930Z,101302.23
2019-03-01T20:45:25.918Z,101305.26
2019-03-01T20:48:03.024Z,101305.05
2019-03-01T20:50:36.493Z,101307.52
2019-03-01T20:53:13.406Z,101308.61
2019-03-01T20:55:43.317Z,101307.91
2019-03-01T20:58:22.084Z,101313.20
2019-03-01T21:00:58.826Z,101314.74
2019-03-01T21:03:29.942Z,101308.74
2019-03-01T21:06:05.596Z,101304.08
2019-03-01T21:08:38.538Z,101305.98
2019-03-01T21:11:15.115Z,101309.24
2019-03-01T21:13:49.076Z,101308.25
2019-03-01T21:16:21.346Z,101315.13
2019-03-01T21:18:56.501Z,101316.92
2019-03-01T21:21:28.923Z,101320.77
2019-03-01T21:24:00.638Z,101318.11
2019-03-01T21:26:32.097Z,101322.81
2019-03-01T21:29:08.952Z,101322.44
2019-03-01T21:31:39.237Z,101314.86
2019-03-01T21:34:10.728Z,101317.15
2019-03-01T21:36:43.403Z,101315.83
2019-03-01T21:39:24.149Z,101322.93
2019-03-01T21:41:55.463Z,101317.17
2019-03-01T21:44:30.037Z,101315.36
2019-03-01T21:47:06.841Z,101318.11
2019-03-01T21:49:40.017Z,101316.81
2019-03-01T21:52:11.348Z,101316.20
2019-03-01T21:54:42.879Z,101314.03
2019-03-01T21:57:14.810Z,101310.07
2019-03-01T21:59:49.621Z,101306.11
2019-03-01T22:02:20.940Z,101306.23
2019-03-01T22:04:57.553Z,101307.78
2019-03-01T22:07:33.696Z,101316.06
2019-03-01T22:10:05.501Z,101319.56
2019-03-01T22:12:36.781Z,101322.58
2019-03-01T22:15:14.778Z,101320.16
2019-03-01T22:17:48.674Z,101323.19
2019-03-01T22:20:19.299Z,101322.83
2019-03-01T22:22:52.136Z,101322.69
2019-03-01T22:25:26.696Z,101318.96
2019-03-01T22:28:01.093Z,101327.03
2019-03-01T22:30:33.305Z,101332.89
2019-03-01T22:33:04.598Z,101332.65
2019-03-01T22:35:44.625Z,101330.01
2019-03-01T22:38:29.980Z,101333.02
2019-03-01T22:41:04.835Z,101334.47
2019-03-01T22:43:37.654Z,101331.31
2019-03-01T22:46:11.149Z,101329.30
2019-03-01T22:48:53.243Z,101332.17
2019-03-01T22:51:24.551Z,101335.67
2019-03-01T22:53:55.915Z,101327.46
2019-03-01T22:56:29.245Z,101326.73
2019-03-01T22:59:03.499Z,101328.78
2019-03-01T23:01:41.696Z,101327.61
2019-03-01T23:04:14.090Z,101315.35
2019-03-01T23:06:47.619Z,101318.22
2019-03-01T23:09:19.166Z,101317.73
2019-03-01T23:11:54.171Z,101320.88
2019-03-01T23:14:27.387Z,101317.15
2019-03-01T23:16:58.883Z,101315.22
2019-03-01T23:19:31.434Z,101314.97
2019-03-01T23:22:07.660Z,101311.27
2019-03-01T23:24:38.390Z,101316.66
2019-03-01T23:27:10.222Z,101319.19
2019-03-01T23:29:57.876Z,101317.03
2019-03-01T23:32:34.268Z,101312.22
2019-03-01T23:35:06.052Z,101304.91
2019-03-01T23:37:38.818Z,101302.48
2019-03-01T23:40:16.500Z,101300.80
2019-03-01T23:42:53.372Z,101305.70
2019-03-01T23:45:24.867Z,101301.87
2019-03-01T23:47:56.268Z,101300.08
2019-03-01T23:50:28.031Z,101300.09
2019-03-01T23:53:01.338Z,101300.92
2019-03-01T23:55:33.212Z,101300.67
2019-03-01T23:58:09.214Z,101297.22
